createdAt,value
2022-10-18T00:00:03.691Z,17.30
2022-10-18T00:02:54.667Z,17.10
2022-10-18T00:05:23.280Z,19.85
2022-10-18T00:07:52.035Z,15.57
2022-10-18T00:10:20.704Z,17.90
2022-10-18T00:12:49.463Z,17.10
2022-10-18T00:15:18.768Z,16.50
2022-10-18T00:17:47.555Z,13.88
2022-10-18T00:20:17.612Z,16.05
2022-10-18T00:22:46.376Z,14.60
2022-10-18T00:25:15.457Z,15.10
2022-10-18T00:27:44.215Z,14.38
2022-10-18T00:30:13.266Z,14.98
2022-10-18T00:32:43.260Z,15.05
2022-10-18T00:35:11.782Z,14.68
2022-10-18T00:37:41.894Z,12.85
2022-10-18T00:40:11.935Z,14.32
2022-10-18T00:42:40.758Z,14.60
2022-10-18T00:45:23.147Z,14.00
2022-10-18T00:48:02.376Z,13.85
2022-10-18T00:50:35.200Z,16.25
2022-10-18T00:53:11.205Z,10.85
2022-10-18T00:55:40.899Z,14.45
2022-10-18T00:58:11.776Z,13.30
2022-10-18T01:00:40.872Z,12.20
2022-10-18T01:03:10.503Z,12.50
2022-10-18T01:05:44.784Z,11.48
2022-10-18T01:08:44.782Z,12.48
2022-10-18T01:11:34.792Z,13.80
2022-10-18T01:14:23.581Z,13.32
2022-10-18T01:17:02.066Z,12.18
2022-10-18T01:20:09.717Z,13.98
2022-10-18T01:22:45.589Z,12.20
2022-10-18T01:25:34.883Z,12.60
2022-10-18T01:28:21.132Z,12.60
2022-10-18T01:30:56.594Z,11.43
2022-10-18T01:33:39.238Z,10.93
2022-10-18T01:36:18.593Z,11.30
2022-10-18T01:38:52.139Z,12.10
2022-10-18T01:41:25.526Z,10.45
2022-10-18T01:44:01.315Z,11.48
2022-10-18T01:46:32.163Z,11.43
2022-10-18T01:49:01.468Z,10.35
2022-10-18T01:51:33.662Z,12.68
2022-10-18T01:54:03.081Z,13.25
2022-10-18T01:56:50.169Z,9.75
2022-10-18T01:59:41.951Z,9.65
2022-10-18T02:02:24.990Z,11.60
2022-10-18T02:05:03.793Z,11.75
2022-10-18T02:07:51.917Z,13.07
2022-10-18T02:10:36.967Z,10.23
2022-10-18T02:13:06.388Z,11.43
2022-10-18T02:15:42.473Z,10.93
2022-10-18T02:18:19.621Z,10.82
2022-10-18T02:20:50.832Z,12.10
2022-10-18T02:23:26.256Z,12.30
2022-10-18T02:25:55.526Z,11.77
2022-10-18T02:31:07.535Z,9.73
2022-10-18T02:33:49.451Z,10.50
2022-10-18T02:36:24.883Z,10.13
2022-10-18T02:39:01.470Z,12.27
2022-10-18T02:41:32.107Z,11.20
2022-10-18T02:44:00.942Z,9.15
2022-10-18T02:46:29.771Z,12.13
2022-10-18T02:48:59.826Z,10.77
2022-10-18T02:51:28.358Z,9.18
2022-10-18T02:53:57.060Z,13.30
2022-10-18T02:56:25.830Z,9.85
2022-10-18T02:58:54.557Z,8.45
2022-10-18T03:01:23.356Z,7.72
2022-10-18T03:03:52.629Z,10.38
2022-10-18T03:06:22.612Z,9.57
2022-10-18T03:08:51.360Z,10.13
2022-10-18T03:11:19.957Z,11.05
2022-10-18T03:13:50.338Z,9.25
2022-10-18T03:16:19.323Z,8.65
2022-10-18T03:18:48.313Z,8.07
2022-10-18T03:21:17.079Z,9.32
2022-10-18T03:23:47.156Z,11.05
2022-10-18T03:26:15.684Z,9.13
2022-10-18T03:28:44.526Z,9.35
2022-10-18T03:31:13.127Z,10.13
2022-10-18T03:33:41.919Z,9.60
2022-10-18T03:36:10.796Z,8.13
2022-10-18T03:38:39.742Z,7.75
2022-10-18T03:41:09.733Z,8.60
2022-10-18T03:43:38.647Z,9.65
2022-10-18T03:46:07.274Z,8.57
2022-10-18T03:48:35.997Z,8.63
2022-10-18T03:51:04.954Z,7.85
2022-10-18T03:53:33.671Z,11.90
2022-10-18T03:56:02.203Z,9.95
2022-10-18T04:01:05.783Z,11.20
2022-10-18T04:03:34.600Z,9.15
2022-10-18T04:06:03.768Z,9.05
2022-10-18T04:08:32.525Z,8.68
2022-10-18T04:11:01.041Z,9.13
2022-10-18T04:13:31.097Z,8.07
2022-10-18T04:15:59.596Z,9.43
2022-10-18T04:18:28.700Z,9.68
2022-10-18T04:20:57.359Z,9.45
2022-10-18T04:23:26.203Z,11.50
2022-10-18T04:25:54.744Z,9.00
2022-10-18T04:28:23.504Z,12.27
2022-10-18T04:30:54.192Z,9.55
2022-10-18T04:33:23.510Z,9.90
2022-10-18T04:35:54.444Z,9.88
2022-10-18T04:38:23.137Z,7.55
2022-10-18T04:40:51.899Z,7.75
2022-10-18T04:43:20.809Z,11.30
2022-10-18T04:45:51.162Z,8.85
2022-10-18T04:48:22.166Z,9.52
2022-10-18T04:50:51.716Z,10.98
2022-10-18T04:53:21.262Z,8.30
2022-10-18T04:55:51.141Z,10.98
2022-10-18T04:58:20.343Z,10.40
2022-10-18T05:00:48.907Z,8.40
2022-10-18T05:03:18.225Z,8.43
2022-10-18T05:06:01.436Z,8.18
2022-10-18T05:08:31.789Z,8.55
2022-10-18T05:11:01.285Z,8.93
2022-10-18T05:13:30.811Z,9.10
2022-10-18T05:16:00.794Z,9.88
2022-10-18T05:18:29.727Z,7.78
2022-10-18T05:20:59.918Z,10.10
2022-10-18T05:23:28.673Z,9.38
2022-10-18T05:26:03.252Z,10.80
2022-10-18T05:28:40.811Z,9.15
2022-10-18T05:31:12.635Z,7.95
2022-10-18T05:33:41.462Z,9.38
2022-10-18T05:36:11.801Z,10.40
2022-10-18T05:38:43.333Z,9.57
2022-10-18T05:41:13.383Z,10.63
2022-10-18T05:43:42.432Z,11.70
2022-10-18T05:46:15.414Z,11.45
2022-10-18T05:48:45.569Z,10.50
2022-10-18T05:51:15.522Z,9.32
2022-10-18T05:53:44.307Z,10.27
2022-10-18T05:56:12.932Z,11.10
2022-10-18T05:58:42.708Z,9.85
2022-10-18T06:01:11.906Z,9.65
2022-10-18T06:03:40.642Z,12.48
2022-10-18T06:06:12.392Z,9.40
2022-10-18T06:08:44.782Z,11.32
2022-10-18T06:11:17.186Z,10.88
2022-10-18T06:13:49.055Z,10.68
2022-10-18T06:16:21.407Z,9.57
2022-10-18T06:18:52.237Z,9.98
2022-10-18T06:21:22.340Z,14.15
2022-10-18T06:23:54.207Z,9.68
2022-10-18T06:26:23.542Z,10.10
2022-10-18T06:28:52.775Z,14.65
2022-10-18T06:31:21.787Z,10.15
2022-10-18T06:33:50.863Z,11.93
2022-10-18T06:36:22.523Z,11.57
2022-10-18T06:38:53.231Z,16.13
2022-10-18T06:41:22.100Z,11.32
2022-10-18T06:43:51.696Z,10.43
2022-10-18T06:46:20.996Z,11.13
2022-10-18T06:48:50.026Z,11.98
2022-10-18T06:51:18.554Z,11.25
2022-10-18T06:54:05.826Z,8.88
2022-10-18T06:56:37.963Z,11.27
2022-10-18T06:59:07.223Z,10.27
2022-10-18T07:01:36.130Z,13.48
2022-10-18T07:04:05.360Z,12.25
2022-10-18T07:06:33.875Z,13.35
2022-10-18T07:09:03.116Z,11.10
2022-10-18T07:11:31.827Z,9.15
2022-10-18T07:14:04.923Z,10.93
2022-10-18T07:16:36.159Z,9.13
2022-10-18T07:19:05.710Z,11.10
2022-10-18T07:21:35.123Z,12.20
2022-10-18T07:24:04.011Z,13.18
2022-10-18T07:26:35.142Z,10.32
2022-10-18T07:29:09.881Z,10.13
2022-10-18T07:31:39.748Z,13.80
2022-10-18T07:34:12.596Z,10.80
2022-10-18T07:36:41.937Z,9.18
2022-10-18T07:39:11.250Z,11.68
2022-10-18T07:41:39.934Z,11.20
2022-10-18T07:44:10.310Z,11.10
2022-10-18T07:46:38.948Z,10.98
2022-10-18T07:49:07.640Z,12.02
2022-10-18T07:51:36.227Z,12.18
2022-10-18T07:54:05.202Z,11.60
2022-10-18T07:56:33.702Z,10.60
2022-10-18T07:59:02.666Z,12.18
2022-10-18T08:01:32.577Z,9.68
2022-10-18T08:04:07.011Z,11.43
2022-10-18T08:06:36.422Z,11.60
2022-10-18T08:09:05.697Z,13.40
2022-10-18T08:11:34.602Z,11.57
2022-10-18T08:14:03.332Z,13.48
2022-10-18T08:19:06.952Z,11.43
2022-10-18T08:21:35.528Z,12.27
2022-10-18T08:24:04.681Z,15.75
2022-10-18T08:26:33.203Z,15.43
2022-10-18T08:31:52.572Z,19.65
2022-10-18T08:34:21.486Z,13.75
2022-10-18T08:36:50.056Z,14.35
2022-10-18T08:39:18.778Z,15.02
2022-10-18T08:42:27.374Z,13.50
2022-10-18T08:44:57.751Z,14.45
2022-10-18T08:47:36.625Z,12.63
2022-10-18T08:50:15.262Z,17.40
2022-10-18T08:52:58.822Z,13.20
2022-10-18T08:55:36.533Z,15.57
2022-10-18T08:58:16.908Z,14.52
2022-10-18T09:01:03.696Z,19.10
2022-10-18T09:04:01.974Z,15.98
2022-10-18T09:06:36.702Z,20.45
2022-10-18T09:09:23.276Z,19.27
2022-10-18T09:12:09.546Z,17.27
2022-10-18T09:15:18.585Z,12.40
2022-10-18T09:18:07.446Z,16.60
2022-10-18T09:20:51.143Z,16.52
2022-10-18T09:23:23.729Z,14.25
2022-10-18T09:26:00.449Z,15.48
2022-10-18T09:28:48.521Z,18.05
2022-10-18T09:31:25.553Z,15.63
2022-10-18T09:34:01.648Z,17.10
2022-10-18T09:36:37.135Z,17.35
2022-10-18T09:39:13.368Z,16.00
2022-10-18T09:41:51.281Z,18.25
2022-10-18T09:44:25.528Z,19.48
2022-10-18T09:47:02.521Z,18.08
2022-10-18T09:49:38.628Z,18.75
2022-10-18T09:52:16.697Z,19.67
2022-10-18T09:54:55.076Z,17.90
2022-10-18T09:57:33.402Z,18.23
2022-10-18T10:00:05.703Z,20.40
2022-10-18T10:02:34.247Z,19.50
2022-10-18T10:05:03.040Z,19.70
2022-10-18T10:07:42.129Z,22.25
2022-10-18T10:10:20.697Z,17.67
2022-10-18T10:13:03.135Z,19.60
2022-10-18T10:15:35.438Z,17.65
2022-10-18T10:18:22.205Z,21.48
2022-10-18T10:20:54.961Z,18.13
2022-10-18T10:23:30.388Z,16.08
2022-10-18T10:26:03.139Z,22.35
2022-10-18T10:28:37.924Z,18.25
2022-10-18T10:31:26.841Z,15.70
2022-10-18T10:34:03.167Z,19.52
2022-10-18T10:36:34.256Z,20.95
2022-10-18T10:39:12.635Z,22.23
2022-10-18T10:41:42.693Z,19.15
2022-10-18T10:44:18.508Z,16.17
2022-10-18T10:46:50.421Z,19.98
2022-10-18T10:52:28.819Z,19.85
2022-10-18T10:55:06.121Z,18.50
2022-10-18T10:57:49.601Z,20.98
2022-10-18T11:00:48.035Z,21.35
2022-10-18T11:03:29.191Z,16.25
2022-10-18T11:06:00.968Z,16.08
2022-10-18T11:08:39.810Z,17.38
2022-10-18T11:11:23.072Z,16.42
2022-10-18T11:14:13.822Z,20.67
2022-10-18T11:17:02.070Z,24.08
2022-10-18T11:19:45.706Z,22.23
2022-10-18T11:22:22.043Z,18.98
2022-10-18T11:24:50.821Z,23.05
2022-10-18T11:27:28.773Z,16.85
2022-10-18T11:30:37.432Z,24.63
2022-10-18T11:33:33.715Z,17.95
2022-10-18T11:36:21.895Z,20.23
2022-10-18T11:38:58.528Z,23.13
2022-10-18T11:41:41.031Z,23.58
2022-10-18T11:44:24.470Z,17.33
2022-10-18T11:47:05.647Z,20.00
2022-10-18T11:50:08.710Z,24.27
2022-10-18T11:52:56.135Z,22.02
2022-10-18T11:55:41.070Z,22.73
2022-10-18T11:58:37.501Z,16.95
2022-10-18T12:01:21.532Z,20.13
2022-10-18T12:04:04.678Z,18.83
2022-10-18T12:06:39.854Z,23.15
2022-10-18T12:09:20.586Z,27.20
2022-10-18T12:11:56.796Z,19.38
2022-10-18T12:14:30.875Z,21.60
2022-10-18T12:17:39.881Z,19.67
2022-10-18T12:19:59.927Z,17.25
2022-10-18T12:22:37.539Z,21.08
2022-10-18T12:25:13.217Z,19.95
2022-10-18T12:27:51.207Z,24.70
2022-10-18T12:30:28.628Z,19.67
2022-10-18T12:33:27.313Z,19.85
2022-10-18T12:36:17.912Z,21.75
2022-10-18T12:38:51.817Z,22.15
2022-10-18T12:41:27.674Z,22.65
2022-10-18T12:44:03.892Z,24.63
2022-10-18T12:46:46.737Z,21.63
2022-10-18T12:49:32.517Z,22.95
2022-10-18T12:52:06.136Z,24.88
2022-10-18T12:54:39.649Z,19.42
2022-10-18T12:57:24.633Z,25.52
2022-10-18T12:59:53.883Z,23.27
2022-10-18T13:02:33.045Z,17.42
2022-10-18T13:05:56.518Z,20.08
2022-10-18T13:08:42.574Z,19.70
2022-10-18T13:11:36.803Z,22.48
2022-10-18T13:14:59.201Z,16.75
2022-10-18T13:17:47.030Z,19.90
2022-10-18T13:20:29.975Z,19.58
2022-10-18T13:23:20.235Z,22.10
2022-10-18T13:26:05.600Z,19.15
2022-10-18T13:28:44.095Z,22.90
2022-10-18T13:31:24.159Z,17.77
2022-10-18T13:33:53.139Z,23.25
2022-10-18T13:36:26.409Z,16.90
2022-10-18T13:39:06.619Z,18.20
2022-10-18T13:42:30.529Z,16.15
2022-10-18T13:45:50.987Z,21.75
2022-10-18T13:48:51.956Z,20.27
2022-10-18T13:51:45.813Z,19.42
2022-10-18T13:54:46.713Z,18.75
2022-10-18T13:57:38.995Z,18.15
2022-10-18T14:00:48.170Z,20.52
2022-10-18T14:03:57.038Z,20.55
2022-10-18T14:06:36.560Z,22.17
2022-10-18T14:09:25.670Z,23.00
2022-10-18T14:12:17.333Z,17.77
2022-10-18T14:14:53.334Z,17.83
2022-10-18T14:20:27.329Z,16.65
2022-10-18T14:23:12.924Z,24.60
2022-10-18T14:25:41.722Z,24.67
2022-10-18T14:28:16.920Z,24.65
2022-10-18T14:30:55.580Z,23.85
2022-10-18T14:33:36.318Z,24.83
2022-10-18T14:36:15.553Z,27.58
2022-10-18T14:38:52.898Z,28.65
2022-10-18T14:41:26.561Z,24.50
2022-10-18T14:44:19.366Z,21.23
2022-10-18T14:46:51.910Z,26.08
2022-10-18T14:49:22.724Z,23.65
2022-10-18T14:51:53.977Z,26.42
2022-10-18T14:54:30.741Z,24.25
2022-10-18T14:57:02.116Z,26.65
2022-10-18T14:59:35.738Z,23.42
2022-10-18T15:02:15.586Z,29.92
2022-10-18T15:04:47.078Z,23.10
2022-10-18T15:07:19.032Z,22.20
2022-10-18T15:09:50.185Z,30.15
2022-10-18T15:12:20.129Z,33.00
2022-10-18T15:14:50.965Z,28.38
2022-10-18T15:17:26.308Z,24.75
2022-10-18T15:20:01.858Z,27.05
2022-10-18T15:22:34.947Z,29.42
2022-10-18T15:25:31.573Z,29.90
2022-10-18T15:28:02.411Z,30.83
2022-10-18T15:30:41.288Z,30.88
2022-10-18T15:33:23.347Z,37.38
2022-10-18T15:35:54.088Z,25.08
2022-10-18T15:38:28.870Z,22.23
2022-10-18T15:40:59.163Z,14.00
2022-10-18T15:43:38.083Z,13.20
2022-10-18T15:46:07.533Z,11.25
2022-10-18T15:48:40.213Z,9.25
2022-10-18T15:51:20.225Z,7.85
2022-10-18T15:53:54.101Z,6.57
2022-10-18T15:56:33.827Z,5.50
2022-10-18T15:59:06.807Z,6.13
2022-10-18T16:01:39.444Z,9.88
2022-10-18T16:04:18.206Z,10.70
2022-10-18T16:06:47.097Z,6.38
2022-10-18T16:09:19.324Z,7.88
2022-10-18T16:11:55.821Z,8.85
2022-10-18T16:14:27.234Z,9.82
2022-10-18T16:17:00.845Z,9.05
2022-10-18T16:19:29.579Z,10.73
2022-10-18T16:22:03.641Z,14.30
2022-10-18T16:24:34.894Z,12.63
2022-10-18T16:27:05.328Z,11.73
2022-10-18T16:29:34.515Z,10.90
2022-10-18T16:32:03.318Z,10.85
2022-10-18T16:34:32.673Z,11.00
2022-10-18T16:37:01.597Z,10.93
2022-10-18T16:39:34.858Z,12.98
2022-10-18T16:42:05.146Z,7.93
2022-10-18T16:44:33.859Z,12.40
2022-10-18T16:47:02.901Z,11.65
2022-10-18T16:49:31.557Z,11.18
2022-10-18T16:52:00.480Z,10.65
2022-10-18T16:54:29.015Z,12.52
2022-10-18T16:56:57.852Z,12.13
2022-10-18T16:59:30.973Z,12.73
2022-10-18T17:02:01.627Z,12.52
2022-10-18T17:04:31.637Z,14.65
2022-10-18T17:07:00.483Z,13.48
2022-10-18T17:09:29.069Z,12.15
2022-10-18T17:11:57.811Z,11.93
2022-10-18T17:14:27.671Z,21.83
2022-10-18T17:16:57.490Z,23.73
2022-10-18T17:19:26.201Z,20.00
2022-10-18T17:21:58.848Z,17.85
2022-10-18T17:24:30.273Z,16.70
2022-10-18T17:26:59.015Z,17.77
2022-10-18T17:29:28.922Z,19.27
2022-10-18T17:31:57.781Z,16.95
2022-10-18T17:34:26.307Z,16.17
2022-10-18T17:36:55.959Z,15.73
2022-10-18T17:39:24.626Z,14.90
2022-10-18T17:41:55.433Z,12.10
2022-10-18T17:44:25.067Z,11.93
2022-10-18T17:46:55.369Z,10.35
2022-10-18T17:49:24.168Z,10.55
2022-10-18T17:51:52.880Z,11.82
2022-10-18T17:54:21.412Z,8.85
2022-10-18T17:56:53.896Z,11.88
2022-10-18T17:59:23.615Z,10.23
2022-10-18T18:01:54.077Z,9.25
2022-10-18T18:04:23.720Z,7.78
2022-10-18T18:06:52.914Z,8.05
2022-10-18T18:09:22.009Z,6.78
2022-10-18T18:11:51.959Z,9.30
2022-10-18T18:14:21.331Z,7.82
2022-10-18T18:16:50.415Z,6.28
2022-10-18T18:19:20.294Z,7.55
2022-10-18T18:21:49.461Z,5.35
2022-10-18T18:24:24.465Z,6.60
2022-10-18T18:26:54.715Z,6.43
2022-10-18T18:29:25.857Z,6.55
2022-10-18T18:31:55.122Z,7.97
2022-10-18T18:34:25.380Z,8.95
2022-10-18T18:36:54.428Z,8.55
2022-10-18T18:39:25.786Z,10.77
2022-10-18T18:41:54.862Z,9.48
2022-10-18T18:44:25.096Z,11.25
2022-10-18T18:46:53.894Z,16.27
2022-10-18T18:49:23.806Z,19.25
2022-10-18T18:51:52.582Z,13.82
2022-10-18T18:54:22.141Z,12.45
2022-10-18T18:56:50.968Z,10.35
2022-10-18T18:59:20.229Z,10.18
2022-10-18T19:01:49.095Z,9.82
2022-10-18T19:04:18.044Z,10.20
2022-10-18T19:06:48.233Z,9.52
2022-10-18T19:09:22.044Z,10.85
2022-10-18T19:11:54.366Z,9.27
2022-10-18T19:14:25.760Z,8.40
2022-10-18T19:16:57.924Z,8.40
2022-10-18T19:19:29.338Z,7.90
2022-10-18T19:22:03.651Z,11.93
2022-10-18T19:24:32.689Z,10.48
2022-10-18T19:27:04.945Z,10.65
2022-10-18T19:29:37.229Z,12.68
2022-10-18T19:32:12.175Z,10.95
2022-10-18T19:34:42.374Z,11.82
2022-10-18T19:37:14.299Z,10.85
2022-10-18T19:39:43.061Z,9.93
2022-10-18T19:42:18.573Z,9.18
2022-10-18T19:44:51.080Z,8.00
2022-10-18T19:47:20.480Z,10.90
2022-10-18T19:49:49.200Z,11.57
2022-10-18T19:52:19.326Z,12.02
2022-10-18T19:54:49.719Z,12.05
2022-10-18T19:57:18.459Z,9.13
2022-10-18T19:59:47.124Z,10.43
2022-10-18T20:02:16.167Z,10.75
2022-10-18T20:04:44.814Z,12.02
2022-10-18T20:07:13.693Z,11.90
2022-10-18T20:09:43.662Z,11.70
2022-10-18T20:12:12.529Z,13.70
2022-10-18T20:14:41.154Z,13.85
2022-10-18T20:17:12.964Z,13.23
2022-10-18T20:19:41.580Z,11.02
2022-10-18T20:22:10.365Z,11.13
2022-10-18T20:24:39.010Z,9.70
2022-10-18T20:27:09.134Z,7.78
2022-10-18T20:29:37.698Z,9.52
2022-10-18T20:32:06.891Z,9.40
2022-10-18T20:34:35.571Z,7.18
2022-10-18T20:37:04.306Z,6.40
2022-10-18T20:39:33.656Z,7.63
2022-10-18T20:42:02.862Z,6.25
2022-10-18T20:44:33.999Z,8.65
2022-10-18T20:47:02.942Z,8.32
2022-10-18T20:49:31.556Z,14.55
2022-10-18T20:52:00.507Z,13.23
2022-10-18T20:54:29.053Z,12.55
2022-10-18T20:56:57.758Z,11.73
2022-10-18T20:59:26.308Z,17.55
2022-10-18T21:01:56.856Z,14.63
2022-10-18T21:04:26.017Z,15.00
2022-10-18T21:06:55.068Z,12.27
2022-10-18T21:09:23.872Z,11.77
2022-10-18T21:11:53.900Z,12.30
2022-10-18T21:14:24.948Z,18.83
2022-10-18T21:16:54.311Z,15.38
2022-10-18T21:19:27.094Z,19.05
2022-10-18T21:21:58.549Z,16.02
2022-10-18T21:24:27.960Z,13.93
2022-10-18T21:26:57.338Z,15.60
2022-10-18T21:29:25.854Z,17.05
2022-10-18T21:31:59.345Z,19.13
2022-10-18T21:34:29.304Z,18.08
2022-10-18T21:36:57.967Z,16.63
2022-10-18T21:39:26.770Z,18.85
2022-10-18T21:41:55.607Z,17.30
2022-10-18T21:44:24.241Z,14.27
2022-10-18T21:46:53.010Z,20.13
2022-10-18T21:49:24.956Z,16.27
2022-10-18T21:51:55.179Z,17.45
2022-10-18T21:54:23.745Z,18.33
2022-10-18T21:56:52.486Z,17.75
2022-10-18T21:59:21.210Z,20.98
2022-10-18T22:01:50.042Z,17.15
2022-10-18T22:04:22.229Z,21.95
2022-10-18T22:06:51.985Z,16.67
2022-10-18T22:09:22.472Z,16.50
2022-10-18T22:11:54.219Z,16.48
2022-10-18T22:14:24.047Z,21.13
2022-10-18T22:16:53.121Z,19.27
2022-10-18T22:19:22.255Z,20.25
2022-10-18T22:21:52.694Z,19.30
2022-10-18T22:24:22.614Z,18.92
2022-10-18T22:26:51.546Z,17.35
2022-10-18T22:29:22.423Z,24.02
2022-10-18T22:31:54.551Z,17.77
2022-10-18T22:34:27.615Z,20.55
2022-10-18T22:36:57.372Z,17.02
2022-10-18T22:39:27.659Z,19.27
2022-10-18T22:41:57.342Z,20.95
2022-10-18T22:44:26.082Z,19.88
2022-10-18T22:46:54.864Z,19.55
2022-10-18T22:49:23.411Z,15.82
2022-10-18T22:51:52.097Z,18.58
2022-10-18T22:54:20.922Z,22.20
2022-10-18T22:56:51.323Z,19.92
2022-10-18T22:59:20.082Z,17.33
2022-10-18T23:01:48.782Z,21.05
2022-10-18T23:04:17.291Z,17.45
2022-10-18T23:06:45.991Z,17.90
2022-10-18T23:09:14.464Z,22.98
2022-10-18T23:11:43.353Z,20.73
2022-10-18T23:14:13.240Z,16.58
2022-10-18T23:16:42.083Z,18.17
2022-10-18T23:19:16.685Z,18.50
2022-10-18T23:21:45.411Z,25.60
2022-10-18T23:24:13.974Z,22.10
2022-10-18T23:26:42.698Z,20.27
2022-10-18T23:29:12.642Z,19.35
2022-10-18T23:31:41.495Z,21.27
2022-10-18T23:34:11.505Z,18.08
2022-10-18T23:36:40.330Z,19.98
2022-10-18T23:39:08.895Z,19.27
2022-10-18T23:41:37.643Z,20.58
2022-10-18T23:44:09.012Z,16.55
2022-10-18T23:46:39.167Z,21.08
2022-10-18T23:49:07.677Z,19.05
2022-10-18T23:51:36.365Z,19.40
2022-10-18T23:54:04.991Z,22.55
2022-10-18T23:56:33.752Z,18.92
2022-10-18T23:59:02.333Z,19.13
